Terminal Aerodrome Forecast
Issued by NWS

Home | Current Version | Previous Version | Text Only | Print | Product List | Glossary On
Versions: 1 2 3 4 5 6 7 8 9 10 11 12 13 14 15 16
688
FTUS42 KGSP 271720
TAFAND
TAF
KAND 271720Z 2718/2818 12006KT P6SM BKN120
     FM280000 06003KT P6SM OVC040
     FM280900 07003KT P6SM OVC020
     FM281200 10003KT P6SM OVC012 PROB30 2812/2816 5SM -SHRA OVC008=

USA.gov is the U.S. government's official web portal to all federal, state and local government web resources and services.